sensor_id;sensor_type;location;lat;lon;timestamp;P1;durP1;ratioP1;P2;durP2;ratioP2
14766;SDS011;7475;53.558;9.970;2022-08-01T00:01:59;14.50;;;13.10;;
14766;SDS011;7475;53.558;9.970;2022-08-01T00:04:25;14.93;;;13.63;;
14766;SDS011;7475;53.558;9.970;2022-08-01T00:06:50;15.38;;;13.88;;
14766;SDS011;7475;53.558;9.970;2022-08-01T00:09:15;14.25;;;12.95;;
14766;SDS011;7475;53.558;9.970;2022-08-01T00:11:41;13.20;;;12.00;;
14766;SDS011;7475;53.558;9.970;2022-08-01T00:14:07;13.77;;;12.43;;
14766;SDS011;7475;53.558;9.970;2022-08-01T00:16:34;13.35;;;12.15;;
14766;SDS011;7475;53.558;9.970;2022-08-01T00:18:59;13.60;;;12.20;;
14766;SDS011;7475;53.558;9.970;2022-08-01T00:21:24;12.98;;;11.68;;
14766;SDS011;7475;53.558;9.970;2022-08-01T00:23:49;12.82;;;11.50;;
14766;SDS011;7475;53.558;9.970;2022-08-01T00:26:15;13.35;;;12.15;;
14766;SDS011;7475;53.558;9.970;2022-08-01T00:28:40;14.65;;;13.00;;
14766;SDS011;7475;53.558;9.970;2022-08-01T00:31:05;13.68;;;12.25;;
14766;SDS011;7475;53.558;9.970;2022-08-01T00:33:31;16.25;;;13.10;;
14766;SDS011;7475;53.558;9.970;2022-08-01T00:35:56;13.93;;;12.53;;
14766;SDS011;7475;53.558;9.970;2022-08-01T00:38:21;13.53;;;12.23;;
14766;SDS011;7475;53.558;9.970;2022-08-01T00:40:47;12.50;;;11.30;;
14766;SDS011;7475;53.558;9.970;2022-08-01T00:43:12;13.90;;;12.50;;
14766;SDS011;7475;53.558;9.970;2022-08-01T00:45:37;12.68;;;11.48;;
14766;SDS011;7475;53.558;9.970;2022-08-01T00:48:03;12.95;;;11.65;;
14766;SDS011;7475;53.558;9.970;2022-08-01T00:50:28;12.32;;;11.00;;
14766;SDS011;7475;53.558;9.970;2022-08-01T00:52:53;10.90;;;9.90;;
14766;SDS011;7475;53.558;9.970;2022-08-01T00:55:19;6.85;;;5.82;;
14766;SDS011;7475;53.558;9.970;2022-08-01T00:57:45;7.95;;;7.15;;
14766;SDS011;7475;53.558;9.970;2022-08-01T01:00:10;7.57;;;6.97;;
14766;SDS011;7475;53.558;9.970;2022-08-01T01:02:36;8.82;;;7.93;;
14766;SDS011;7475;53.558;9.970;2022-08-01T01:05:01;9.40;;;8.55;;
14766;SDS011;7475;53.558;9.970;2022-08-01T01:09:56;12.03;;;9.63;;
14766;SDS011;7475;53.558;9.970;2022-08-01T01:12:59;10.68;;;9.77;;
14766;SDS011;7475;53.558;9.970;2022-08-01T01:20:32;11.43;;;10.35;;
14766;SDS011;7475;53.558;9.970;2022-08-01T01:27:57;14.23;;;10.98;;
14766;SDS011;7475;53.558;9.970;2022-08-01T01:30:27;12.80;;;11.43;;
14766;SDS011;7475;53.558;9.970;2022-08-01T01:32:53;12.02;;;10.73;;
14766;SDS011;7475;53.558;9.970;2022-08-01T01:35:27;12.95;;;11.45;;
14766;SDS011;7475;53.558;9.970;2022-08-01T01:37:56;15.13;;;12.20;;
14766;SDS011;7475;53.558;9.970;2022-08-01T01:40:22;12.52;;;11.27;;
14766;SDS011;7475;53.558;9.970;2022-08-01T01:42:48;13.13;;;11.68;;
14766;SDS011;7475;53.558;9.970;2022-08-01T01:45:14;13.90;;;12.40;;
14766;SDS011;7475;53.558;9.970;2022-08-01T01:47:40;13.65;;;12.18;;
14766;SDS011;7475;53.558;9.970;2022-08-01T01:50:07;14.27;;;12.35;;
14766;SDS011;7475;53.558;9.970;2022-08-01T01:52:33;15.43;;;12.52;;
14766;SDS011;7475;53.558;9.970;2022-08-01T01:54:59;13.95;;;12.40;;
14766;SDS011;7475;53.558;9.970;2022-08-01T01:57:26;15.18;;;13.57;;
14766;SDS011;7475;53.558;9.970;2022-08-01T01:59:52;18.00;;;13.20;;
14766;SDS011;7475;53.558;9.970;2022-08-01T02:02:18;14.82;;;13.18;;
14766;SDS011;7475;53.558;9.970;2022-08-01T02:04:44;15.95;;;14.15;;
14766;SDS011;7475;53.558;9.970;2022-08-01T02:07:11;15.32;;;13.65;;
14766;SDS011;7475;53.558;9.970;2022-08-01T02:09:37;15.60;;;12.05;;
14766;SDS011;7475;53.558;9.970;2022-08-01T02:12:04;13.07;;;11.65;;
14766;SDS011;7475;53.558;9.970;2022-08-01T02:14:31;11.65;;;10.30;;
14766;SDS011;7475;53.558;9.970;2022-08-01T02:16:57;14.07;;;10.35;;
14766;SDS011;7475;53.558;9.970;2022-08-01T02:19:23;12.13;;;10.95;;
14766;SDS011;7475;53.558;9.970;2022-08-01T02:21:51;16.13;;;10.15;;
14766;SDS011;7475;53.558;9.970;2022-08-01T02:26:49;11.30;;;10.15;;
14766;SDS011;7475;53.558;9.970;2022-08-01T02:29:17;11.88;;;10.65;;
14766;SDS011;7475;53.558;9.970;2022-08-01T02:31:44;11.93;;;10.02;;
14766;SDS011;7475;53.558;9.970;2022-08-01T02:34:12;13.82;;;11.27;;
14766;SDS011;7475;53.558;9.970;2022-08-01T02:36:38;13.65;;;10.93;;
14766;SDS011;7475;53.558;9.970;2022-08-01T02:39:08;13.47;;;9.53;;
14766;SDS011;7475;53.558;9.970;2022-08-01T02:41:35;10.45;;;8.82;;
14766;SDS011;7475;53.558;9.970;2022-08-01T02:44:03;12.55;;;9.45;;
14766;SDS011;7475;53.558;9.970;2022-08-01T02:46:33;10.35;;;9.35;;
14766;SDS011;7475;53.558;9.970;2022-08-01T02:49:00;12.10;;;10.32;;
14766;SDS011;7475;53.558;9.970;2022-08-01T02:51:25;10.70;;;9.60;;
14766;SDS011;7475;53.558;9.970;2022-08-01T02:53:51;11.02;;;9.65;;
14766;SDS011;7475;53.558;9.970;2022-08-01T02:56:18;11.90;;;9.90;;
14766;SDS011;7475;53.558;9.970;2022-08-01T02:58:44;13.07;;;10.27;;
14766;SDS011;7475;53.558;9.970;2022-08-01T03:01:10;13.57;;;11.05;;
14766;SDS011;7475;53.558;9.970;2022-08-01T03:03:37;12.90;;;10.45;;
14766;SDS011;7475;53.558;9.970;2022-08-01T03:06:02;15.05;;;10.50;;
14766;SDS011;7475;53.558;9.970;2022-08-01T03:08:28;11.48;;;9.55;;
14766;SDS011;7475;53.558;9.970;2022-08-01T03:10:54;14.35;;;10.35;;
14766;SDS011;7475;53.558;9.970;2022-08-01T03:13:20;12.77;;;9.45;;
14766;SDS011;7475;53.558;9.970;2022-08-01T03:15:46;10.77;;;9.77;;
14766;SDS011;7475;53.558;9.970;2022-08-01T03:18:12;11.30;;;9.57;;
14766;SDS011;7475;53.558;9.970;2022-08-01T03:20:38;11.15;;;9.20;;
14766;SDS011;7475;53.558;9.970;2022-08-01T03:23:07;9.70;;;8.63;;
14766;SDS011;7475;53.558;9.970;2022-08-01T03:25:34;9.32;;;8.13;;
14766;SDS011;7475;53.558;9.970;2022-08-01T03:28:01;9.73;;;8.75;;
14766;SDS011;7475;53.558;9.970;2022-08-01T03:30:26;12.98;;;8.90;;
14766;SDS011;7475;53.558;9.970;2022-08-01T03:32:52;11.95;;;9.40;;
14766;SDS011;7475;53.558;9.970;2022-08-01T03:35:17;11.57;;;9.35;;
14766;SDS011;7475;53.558;9.970;2022-08-01T03:37:44;11.43;;;9.35;;
14766;SDS011;7475;53.558;9.970;2022-08-01T03:42:37;13.15;;;9.15;;
14766;SDS011;7475;53.558;9.970;2022-08-01T03:45:04;10.13;;;8.25;;
14766;SDS011;7475;53.558;9.970;2022-08-01T03:47:32;10.65;;;8.70;;
14766;SDS011;7475;53.558;9.970;2022-08-01T03:49:58;7.97;;;7.00;;
14766;SDS011;7475;53.558;9.970;2022-08-01T03:52:25;7.93;;;7.10;;
14766;SDS011;7475;53.558;9.970;2022-08-01T03:54:52;6.93;;;6.10;;
14766;SDS011;7475;53.558;9.970;2022-08-01T03:57:19;9.32;;;5.97;;
14766;SDS011;7475;53.558;9.970;2022-08-01T03:59:44;7.38;;;5.75;;
14766;SDS011;7475;53.558;9.970;2022-08-01T04:02:10;6.70;;;6.13;;
14766;SDS011;7475;53.558;9.970;2022-08-01T04:04:38;7.97;;;6.72;;
14766;SDS011;7475;53.558;9.970;2022-08-01T04:07:03;8.23;;;6.45;;
14766;SDS011;7475;53.558;9.970;2022-08-01T04:09:31;8.63;;;6.53;;
14766;SDS011;7475;53.558;9.970;2022-08-01T04:11:58;7.15;;;6.45;;
14766;SDS011;7475;53.558;9.970;2022-08-01T04:14:23;7.05;;;6.35;;
14766;SDS011;7475;53.558;9.970;2022-08-01T04:16:48;9.82;;;6.40;;
14766;SDS011;7475;53.558;9.970;2022-08-01T04:19:14;7.68;;;6.10;;
14766;SDS011;7475;53.558;9.970;2022-08-01T04:21:39;7.93;;;5.57;;
14766;SDS011;7475;53.558;9.970;2022-08-01T04:24:11;7.20;;;4.70;;
14766;SDS011;7475;53.558;9.970;2022-08-01T04:26:37;5.18;;;4.55;;
14766;SDS011;7475;53.558;9.970;2022-08-01T04:29:04;6.00;;;5.35;;
14766;SDS011;7475;53.558;9.970;2022-08-01T04:31:31;6.32;;;4.70;;
14766;SDS011;7475;53.558;9.970;2022-08-01T04:33:57;5.97;;;4.50;;
14766;SDS011;7475;53.558;9.970;2022-08-01T04:36:23;9.07;;;4.20;;
14766;SDS011;7475;53.558;9.970;2022-08-01T04:38:50;4.38;;;3.95;;
14766;SDS011;7475;53.558;9.970;2022-08-01T04:41:17;5.82;;;4.07;;
14766;SDS011;7475;53.558;9.970;2022-08-01T04:43:43;4.75;;;4.13;;
14766;SDS011;7475;53.558;9.970;2022-08-01T04:46:08;4.15;;;3.75;;
14766;SDS011;7475;53.558;9.970;2022-08-01T04:48:36;5.40;;;4.90;;
14766;SDS011;7475;53.558;9.970;2022-08-01T04:51:01;4.93;;;3.92;;
14766;SDS011;7475;53.558;9.970;2022-08-01T04:53:26;5.47;;;3.22;;
14766;SDS011;7475;53.558;9.970;2022-08-01T04:55:52;5.10;;;3.40;;
14766;SDS011;7475;53.558;9.970;2022-08-01T04:58:18;8.05;;;3.47;;
14766;SDS011;7475;53.558;9.970;2022-08-01T05:00:43;3.65;;;3.00;;
14766;SDS011;7475;53.558;9.970;2022-08-01T05:03:08;5.03;;;2.97;;
14766;SDS011;7475;53.558;9.970;2022-08-01T05:05:33;3.13;;;2.70;;
14766;SDS011;7475;53.558;9.970;2022-08-01T05:07:59;3.30;;;2.05;;
14766;SDS011;7475;53.558;9.970;2022-08-01T05:10:25;3.45;;;2.00;;
14766;SDS011;7475;53.558;9.970;2022-08-01T05:12:51;3.60;;;2.00;;
14766;SDS011;7475;53.558;9.970;2022-08-01T05:15:16;3.60;;;2.80;;
14766;SDS011;7475;53.558;9.970;2022-08-01T05:17:41;2.28;;;1.98;;
14766;SDS011;7475;53.558;9.970;2022-08-01T05:20:07;2.55;;;2.35;;
14766;SDS011;7475;53.558;9.970;2022-08-01T05:22:32;3.05;;;1.95;;
14766;SDS011;7475;53.558;9.970;2022-08-01T05:24:57;4.03;;;2.38;;
14766;SDS011;7475;53.558;9.970;2022-08-01T05:27:24;3.25;;;2.40;;
14766;SDS011;7475;53.558;9.970;2022-08-01T05:29:49;4.22;;;2.63;;
14766;SDS011;7475;53.558;9.970;2022-08-01T05:32:14;3.58;;;2.42;;
14766;SDS011;7475;53.558;9.970;2022-08-01T05:34:40;4.23;;;3.27;;
14766;SDS011;7475;53.558;9.970;2022-08-01T05:37:05;3.42;;;3.17;;
14766;SDS011;7475;53.558;9.970;2022-08-01T05:39:30;5.00;;;4.13;;
14766;SDS011;7475;53.558;9.970;2022-08-01T05:41:55;5.13;;;4.07;;
14766;SDS011;7475;53.558;9.970;2022-08-01T05:44:21;5.10;;;4.67;;
14766;SDS011;7475;53.558;9.970;2022-08-01T05:46:46;4.68;;;4.28;;
14766;SDS011;7475;53.558;9.970;2022-08-01T05:49:11;6.32;;;5.18;;
14766;SDS011;7475;53.558;9.970;2022-08-01T05:51:36;6.68;;;5.88;;
14766;SDS011;7475;53.558;9.970;2022-08-01T05:54:01;7.77;;;5.03;;
14766;SDS011;7475;53.558;9.970;2022-08-01T05:56:27;5.20;;;4.65;;
14766;SDS011;7475;53.558;9.970;2022-08-01T05:58:52;6.15;;;5.05;;
14766;SDS011;7475;53.558;9.970;2022-08-01T06:01:18;8.30;;;5.72;;
14766;SDS011;7475;53.558;9.970;2022-08-01T06:03:44;7.65;;;5.32;;
14766;SDS011;7475;53.558;9.970;2022-08-01T06:06:09;6.78;;;5.95;;
14766;SDS011;7475;53.558;9.970;2022-08-01T06:08:34;8.30;;;5.63;;
14766;SDS011;7475;53.558;9.970;2022-08-01T06:11:00;9.77;;;6.43;;
14766;SDS011;7475;53.558;9.970;2022-08-01T06:13:25;7.87;;;6.47;;
14766;SDS011;7475;53.558;9.970;2022-08-01T06:15:50;9.88;;;6.55;;
14766;SDS011;7475;53.558;9.970;2022-08-01T06:18:15;8.63;;;6.80;;
14766;SDS011;7475;53.558;9.970;2022-08-01T06:20:41;8.85;;;7.05;;
14766;SDS011;7475;53.558;9.970;2022-08-01T06:23:06;9.02;;;7.05;;
14766;SDS011;7475;53.558;9.970;2022-08-01T06:25:32;8.77;;;6.93;;
14766;SDS011;7475;53.558;9.970;2022-08-01T06:27:58;9.95;;;6.68;;
14766;SDS011;7475;53.558;9.970;2022-08-01T06:30:23;12.25;;;8.10;;
14766;SDS011;7475;53.558;9.970;2022-08-01T06:32:48;12.18;;;6.60;;
14766;SDS011;7475;53.558;9.970;2022-08-01T06:35:17;8.23;;;6.78;;
14766;SDS011;7475;53.558;9.970;2022-08-01T06:37:42;8.00;;;6.43;;
14766;SDS011;7475;53.558;9.970;2022-08-01T06:40:08;9.50;;;6.28;;
14766;SDS011;7475;53.558;9.970;2022-08-01T06:42:34;8.25;;;5.47;;
14766;SDS011;7475;53.558;9.970;2022-08-01T06:45:06;10.20;;;5.57;;
14766;SDS011;7475;53.558;9.970;2022-08-01T06:47:31;10.98;;;7.45;;
14766;SDS011;7475;53.558;9.970;2022-08-01T06:49:57;8.65;;;5.90;;
14766;SDS011;7475;53.558;9.970;2022-08-01T06:52:22;9.25;;;5.72;;
14766;SDS011;7475;53.558;9.970;2022-08-01T06:54:47;8.95;;;5.05;;
14766;SDS011;7475;53.558;9.970;2022-08-01T06:57:13;7.88;;;4.45;;
14766;SDS011;7475;53.558;9.970;2022-08-01T06:59:38;7.28;;;4.55;;
14766;SDS011;7475;53.558;9.970;2022-08-01T07:02:03;7.10;;;3.83;;
14766;SDS011;7475;53.558;9.970;2022-08-01T07:04:28;7.72;;;3.85;;
14766;SDS011;7475;53.558;9.970;2022-08-01T07:06:54;7.93;;;4.22;;
14766;SDS011;7475;53.558;9.970;2022-08-01T07:09:19;11.13;;;4.17;;
14766;SDS011;7475;53.558;9.970;2022-08-01T07:11:44;8.37;;;4.23;;
14766;SDS011;7475;53.558;9.970;2022-08-01T07:14:09;11.40;;;3.80;;
14766;SDS011;7475;53.558;9.970;2022-08-01T07:16:34;7.50;;;3.70;;
14766;SDS011;7475;53.558;9.970;2022-08-01T07:19:00;7.00;;;3.50;;
14766;SDS011;7475;53.558;9.970;2022-08-01T07:21:25;7.47;;;3.90;;
14766;SDS011;7475;53.558;9.970;2022-08-01T07:23:50;11.15;;;4.70;;
14766;SDS011;7475;53.558;9.970;2022-08-01T07:26:15;9.47;;;5.40;;
14766;SDS011;7475;53.558;9.970;2022-08-01T07:28:41;13.02;;;5.80;;
14766;SDS011;7475;53.558;9.970;2022-08-01T07:31:06;13.63;;;5.97;;
14766;SDS011;7475;53.558;9.970;2022-08-01T07:33:31;15.13;;;5.75;;
14766;SDS011;7475;53.558;9.970;2022-08-01T07:35:56;13.43;;;5.70;;
14766;SDS011;7475;53.558;9.970;2022-08-01T07:38:21;13.57;;;5.22;;
14766;SDS011;7475;53.558;9.970;2022-08-01T07:40:47;15.15;;;4.93;;
14766;SDS011;7475;53.558;9.970;2022-08-01T07:43:12;12.90;;;4.55;;
14766;SDS011;7475;53.558;9.970;2022-08-01T07:45:37;13.38;;;4.57;;
14766;SDS011;7475;53.558;9.970;2022-08-01T07:48:06;10.97;;;3.93;;
14766;SDS011;7475;53.558;9.970;2022-08-01T07:50:31;12.23;;;4.20;;
14766;SDS011;7475;53.558;9.970;2022-08-01T07:52:57;9.43;;;3.50;;
14766;SDS011;7475;53.558;9.970;2022-08-01T07:55:22;8.63;;;2.97;;
14766;SDS011;7475;53.558;9.970;2022-08-01T07:57:47;8.97;;;3.37;;
14766;SDS011;7475;53.558;9.970;2022-08-01T08:00:13;8.88;;;2.90;;
14766;SDS011;7475;53.558;9.970;2022-08-01T08:02:38;12.63;;;3.53;;
14766;SDS011;7475;53.558;9.970;2022-08-01T08:05:03;12.02;;;3.42;;
14766;SDS011;7475;53.558;9.970;2022-08-01T08:07:29;9.27;;;2.83;;
14766;SDS011;7475;53.558;9.970;2022-08-01T08:09:54;9.73;;;3.63;;
14766;SDS011;7475;53.558;9.970;2022-08-01T08:12:20;7.25;;;2.42;;
14766;SDS011;7475;53.558;9.970;2022-08-01T08:14:45;10.15;;;1.90;;
14766;SDS011;7475;53.558;9.970;2022-08-01T08:17:10;7.55;;;3.42;;
14766;SDS011;7475;53.558;9.970;2022-08-01T08:19:35;9.00;;;2.20;;
14766;SDS011;7475;53.558;9.970;2022-08-01T08:22:03;8.10;;;2.08;;
14766;SDS011;7475;53.558;9.970;2022-08-01T08:24:28;6.03;;;1.60;;
14766;SDS011;7475;53.558;9.970;2022-08-01T08:26:55;8.13;;;2.35;;
14766;SDS011;7475;53.558;9.970;2022-08-01T08:29:20;8.90;;;2.33;;
14766;SDS011;7475;53.558;9.970;2022-08-01T08:31:46;6.65;;;1.98;;
14766;SDS011;7475;53.558;9.970;2022-08-01T08:34:12;7.03;;;2.65;;
14766;SDS011;7475;53.558;9.970;2022-08-01T08:36:37;9.00;;;2.70;;
14766;SDS011;7475;53.558;9.970;2022-08-01T08:39:03;9.10;;;2.53;;
14766;SDS011;7475;53.558;9.970;2022-08-01T08:41:35;7.68;;;2.28;;
14766;SDS011;7475;53.558;9.970;2022-08-01T08:44:00;9.90;;;2.38;;
14766;SDS011;7475;53.558;9.970;2022-08-01T08:46:26;8.43;;;2.33;;
14766;SDS011;7475;53.558;9.970;2022-08-01T08:48:52;6.18;;;2.05;;
14766;SDS011;7475;53.558;9.970;2022-08-01T08:51:18;9.45;;;2.30;;
14766;SDS011;7475;53.558;9.970;2022-08-01T08:53:44;9.95;;;2.65;;
14766;SDS011;7475;53.558;9.970;2022-08-01T08:56:14;7.28;;;2.13;;
14766;SDS011;7475;53.558;9.970;2022-08-01T08:58:43;9.80;;;3.78;;
14766;SDS011;7475;53.558;9.970;2022-08-01T09:01:09;5.35;;;2.00;;
14766;SDS011;7475;53.558;9.970;2022-08-01T09:03:35;5.82;;;1.92;;
14766;SDS011;7475;53.558;9.970;2022-08-01T09:06:00;8.75;;;2.40;;
14766;SDS011;7475;53.558;9.970;2022-08-01T09:08:25;5.63;;;1.88;;
14766;SDS011;7475;53.558;9.970;2022-08-01T09:10:51;7.82;;;1.75;;
14766;SDS011;7475;53.558;9.970;2022-08-01T09:13:16;5.73;;;2.00;;
14766;SDS011;7475;53.558;9.970;2022-08-01T09:18:07;8.10;;;1.85;;
14766;SDS011;7475;53.558;9.970;2022-08-01T09:20:32;7.05;;;2.55;;
14766;SDS011;7475;53.558;9.970;2022-08-01T09:23:00;7.10;;;2.47;;
14766;SDS011;7475;53.558;9.970;2022-08-01T09:25:25;5.30;;;2.10;;
14766;SDS011;7475;53.558;9.970;2022-08-01T09:28:04;8.60;;;2.28;;
14766;SDS011;7475;53.558;9.970;2022-08-01T09:30:30;9.65;;;2.20;;
14766;SDS011;7475;53.558;9.970;2022-08-01T09:33:02;6.35;;;2.13;;
14766;SDS011;7475;53.558;9.970;2022-08-01T09:35:28;8.20;;;3.15;;
14766;SDS011;7475;53.558;9.970;2022-08-01T09:40:58;7.68;;;2.22;;
14766;SDS011;7475;53.558;9.970;2022-08-01T09:43:24;7.35;;;2.25;;
14766;SDS011;7475;53.558;9.970;2022-08-01T09:45:50;9.48;;;2.50;;
14766;SDS011;7475;53.558;9.970;2022-08-01T09:48:16;9.07;;;3.28;;
14766;SDS011;7475;53.558;9.970;2022-08-01T09:50:42;9.82;;;3.28;;
14766;SDS011;7475;53.558;9.970;2022-08-01T09:53:08;9.48;;;2.65;;
14766;SDS011;7475;53.558;9.970;2022-08-01T09:55:33;8.05;;;3.10;;
14766;SDS011;7475;53.558;9.970;2022-08-01T09:57:59;7.43;;;2.43;;
14766;SDS011;7475;53.558;9.970;2022-08-01T10:00:25;7.47;;;2.33;;
14766;SDS011;7475;53.558;9.970;2022-08-01T10:02:51;11.02;;;2.83;;
14766;SDS011;7475;53.558;9.970;2022-08-01T10:05:16;11.75;;;2.70;;
14766;SDS011;7475;53.558;9.970;2022-08-01T10:07:57;9.53;;;3.00;;
14766;SDS011;7475;53.558;9.970;2022-08-01T10:10:23;11.30;;;3.47;;
14766;SDS011;7475;53.558;9.970;2022-08-01T10:12:51;8.10;;;2.38;;
14766;SDS011;7475;53.558;9.970;2022-08-01T10:15:17;8.98;;;4.68;;
14766;SDS011;7475;53.558;9.970;2022-08-01T10:17:46;8.07;;;2.72;;
14766;SDS011;7475;53.558;9.970;2022-08-01T10:20:12;8.27;;;2.53;;
14766;SDS011;7475;53.558;9.970;2022-08-01T10:22:38;9.73;;;3.35;;
14766;SDS011;7475;53.558;9.970;2022-08-01T10:25:04;7.72;;;2.80;;
14766;SDS011;7475;53.558;9.970;2022-08-01T10:27:29;5.00;;;2.30;;
14766;SDS011;7475;53.558;9.970;2022-08-01T10:29:58;9.18;;;3.88;;
14766;SDS011;7475;53.558;9.970;2022-08-01T10:32:28;6.80;;;3.28;;
14766;SDS011;7475;53.558;9.970;2022-08-01T10:34:54;8.60;;;2.78;;
14766;SDS011;7475;53.558;9.970;2022-08-01T10:37:19;7.28;;;2.20;;
14766;SDS011;7475;53.558;9.970;2022-08-01T10:39:45;8.10;;;2.70;;
14766;SDS011;7475;53.558;9.970;2022-08-01T10:42:11;9.55;;;4.68;;
14766;SDS011;7475;53.558;9.970;2022-08-01T10:44:37;14.80;;;3.50;;
14766;SDS011;7475;53.558;9.970;2022-08-01T10:47:12;10.02;;;4.60;;
14766;SDS011;7475;53.558;9.970;2022-08-01T10:50:25;6.85;;;2.22;;
14766;SDS011;7475;53.558;9.970;2022-08-01T10:52:22;6.13;;;2.72;;
14766;SDS011;7475;53.558;9.970;2022-08-01T10:54:48;6.77;;;2.37;;
14766;SDS011;7475;53.558;9.970;2022-08-01T10:57:13;4.90;;;1.80;;
14766;SDS011;7475;53.558;9.970;2022-08-01T10:59:49;6.63;;;2.20;;
14766;SDS011;7475;53.558;9.970;2022-08-01T11:02:30;6.13;;;1.90;;
14766;SDS011;7475;53.558;9.970;2022-08-01T11:07:54;5.05;;;2.20;;
14766;SDS011;7475;53.558;9.970;2022-08-01T11:12:50;6.90;;;2.17;;
14766;SDS011;7475;53.558;9.970;2022-08-01T11:15:16;4.00;;;1.80;;
14766;SDS011;7475;53.558;9.970;2022-08-01T11:17:49;4.68;;;1.90;;
14766;SDS011;7475;53.558;9.970;2022-08-01T11:20:16;7.38;;;2.45;;
14766;SDS011;7475;53.558;9.970;2022-08-01T11:25:22;7.07;;;2.10;;
14766;SDS011;7475;53.558;9.970;2022-08-01T11:27:47;8.27;;;1.92;;
14766;SDS011;7475;53.558;9.970;2022-08-01T11:32:48;3.83;;;2.00;;
14766;SDS011;7475;53.558;9.970;2022-08-01T11:35:14;6.18;;;1.98;;
14766;SDS011;7475;53.558;9.970;2022-08-01T11:37:39;6.30;;;2.90;;
14766;SDS011;7475;53.558;9.970;2022-08-01T11:40:15;8.33;;;2.33;;
14766;SDS011;7475;53.558;9.970;2022-08-01T11:42:40;4.82;;;1.92;;
14766;SDS011;7475;53.558;9.970;2022-08-01T11:45:06;8.00;;;1.90;;
14766;SDS011;7475;53.558;9.970;2022-08-01T11:50:29;5.00;;;2.15;;
14766;SDS011;7475;53.558;9.970;2022-08-01T11:52:58;6.60;;;1.67;;
14766;SDS011;7475;53.558;9.970;2022-08-01T11:55:23;6.82;;;1.85;;
14766;SDS011;7475;53.558;9.970;2022-08-01T11:57:49;6.30;;;1.90;;
14766;SDS011;7475;53.558;9.970;2022-08-01T12:00:16;5.03;;;1.90;;
14766;SDS011;7475;53.558;9.970;2022-08-01T12:02:42;6.63;;;1.85;;
14766;SDS011;7475;53.558;9.970;2022-08-01T12:05:08;3.67;;;1.42;;
14766;SDS011;7475;53.558;9.970;2022-08-01T12:07:34;4.93;;;1.67;;
14766;SDS011;7475;53.558;9.970;2022-08-01T12:12:32;4.28;;;1.40;;
14766;SDS011;7475;53.558;9.970;2022-08-01T12:14:59;4.63;;;1.80;;
14766;SDS011;7475;53.558;9.970;2022-08-01T12:17:34;4.55;;;2.17;;
14766;SDS011;7475;53.558;9.970;2022-08-01T12:20:01;5.68;;;2.78;;
14766;SDS011;7475;53.558;9.970;2022-08-01T12:22:26;5.97;;;2.03;;
14766;SDS011;7475;53.558;9.970;2022-08-01T12:24:51;5.90;;;2.03;;
14766;SDS011;7475;53.558;9.970;2022-08-01T12:27:29;5.05;;;1.55;;
14766;SDS011;7475;53.558;9.970;2022-08-01T12:29:55;7.63;;;1.92;;
14766;SDS011;7475;53.558;9.970;2022-08-01T12:32:24;6.00;;;1.60;;
14766;SDS011;7475;53.558;9.970;2022-08-01T12:34:50;6.68;;;2.90;;
14766;SDS011;7475;53.558;9.970;2022-08-01T12:37:16;5.30;;;1.80;;
14766;SDS011;7475;53.558;9.970;2022-08-01T12:39:42;4.82;;;1.60;;
14766;SDS011;7475;53.558;9.970;2022-08-01T12:42:07;4.60;;;1.75;;
14766;SDS011;7475;53.558;9.970;2022-08-01T12:44:35;5.70;;;1.70;;
14766;SDS011;7475;53.558;9.970;2022-08-01T12:47:00;4.38;;;1.60;;
14766;SDS011;7475;53.558;9.970;2022-08-01T12:49:26;4.65;;;1.65;;
14766;SDS011;7475;53.558;9.970;2022-08-01T12:51:52;5.13;;;1.75;;
14766;SDS011;7475;53.558;9.970;2022-08-01T12:54:17;4.75;;;1.50;;
14766;SDS011;7475;53.558;9.970;2022-08-01T12:56:43;4.50;;;1.60;;
14766;SDS011;7475;53.558;9.970;2022-08-01T12:59:21;6.53;;;1.70;;
14766;SDS011;7475;53.558;9.970;2022-08-01T13:01:47;5.93;;;1.92;;
14766;SDS011;7475;53.558;9.970;2022-08-01T13:04:12;5.53;;;1.90;;
14766;SDS011;7475;53.558;9.970;2022-08-01T13:06:37;8.37;;;2.97;;
14766;SDS011;7475;53.558;9.970;2022-08-01T13:09:06;5.07;;;1.40;;
14766;SDS011;7475;53.558;9.970;2022-08-01T13:11:31;6.15;;;1.90;;
14766;SDS011;7475;53.558;9.970;2022-08-01T13:13:56;6.28;;;2.17;;
14766;SDS011;7475;53.558;9.970;2022-08-01T13:16:23;4.40;;;1.90;;
14766;SDS011;7475;53.558;9.970;2022-08-01T13:18:49;4.97;;;1.98;;
14766;SDS011;7475;53.558;9.970;2022-08-01T13:21:19;5.82;;;1.92;;
14766;SDS011;7475;53.558;9.970;2022-08-01T13:24:02;7.13;;;1.85;;
14766;SDS011;7475;53.558;9.970;2022-08-01T13:26:37;5.63;;;1.77;;
14766;SDS011;7475;53.558;9.970;2022-08-01T13:29:06;6.65;;;1.63;;
14766;SDS011;7475;53.558;9.970;2022-08-01T13:31:32;4.35;;;1.50;;
14766;SDS011;7475;53.558;9.970;2022-08-01T13:33:58;4.40;;;1.40;;
14766;SDS011;7475;53.558;9.970;2022-08-01T13:36:23;3.78;;;1.70;;
14766;SDS011;7475;53.558;9.970;2022-08-01T13:38:51;5.82;;;1.42;;
14766;SDS011;7475;53.558;9.970;2022-08-01T13:41:35;6.32;;;1.88;;
14766;SDS011;7475;53.558;9.970;2022-08-01T13:44:00;5.57;;;1.47;;
14766;SDS011;7475;53.558;9.970;2022-08-01T13:46:26;5.83;;;2.10;;
14766;SDS011;7475;53.558;9.970;2022-08-01T13:48:51;10.77;;;3.00;;
14766;SDS011;7475;53.558;9.970;2022-08-01T13:51:16;5.77;;;3.30;;
14766;SDS011;7475;53.558;9.970;2022-08-01T13:53:41;11.63;;;2.23;;
14766;SDS011;7475;53.558;9.970;2022-08-01T13:56:07;3.55;;;1.40;;
14766;SDS011;7475;53.558;9.970;2022-08-01T13:58:32;6.37;;;1.60;;
14766;SDS011;7475;53.558;9.970;2022-08-01T14:00:57;6.10;;;1.60;;
14766;SDS011;7475;53.558;9.970;2022-08-01T14:03:22;9.47;;;1.87;;
14766;SDS011;7475;53.558;9.970;2022-08-01T14:05:47;6.40;;;1.80;;
14766;SDS011;7475;53.558;9.970;2022-08-01T14:08:13;4.25;;;1.42;;
14766;SDS011;7475;53.558;9.970;2022-08-01T14:10:39;5.35;;;1.50;;
14766;SDS011;7475;53.558;9.970;2022-08-01T14:13:04;3.47;;;1.33;;
14766;SDS011;7475;53.558;9.970;2022-08-01T14:15:30;4.85;;;1.88;;
14766;SDS011;7475;53.558;9.970;2022-08-01T14:17:55;5.40;;;1.65;;
14766;SDS011;7475;53.558;9.970;2022-08-01T14:20:21;7.63;;;2.10;;
14766;SDS011;7475;53.558;9.970;2022-08-01T14:22:46;5.93;;;1.93;;
14766;SDS011;7475;53.558;9.970;2022-08-01T14:25:11;5.80;;;1.85;;
14766;SDS011;7475;53.558;9.970;2022-08-01T14:27:37;5.28;;;1.80;;
14766;SDS011;7475;53.558;9.970;2022-08-01T14:30:05;4.35;;;1.73;;
14766;SDS011;7475;53.558;9.970;2022-08-01T14:32:31;5.57;;;2.20;;
14766;SDS011;7475;53.558;9.970;2022-08-01T14:34:58;4.97;;;1.60;;
14766;SDS011;7475;53.558;9.970;2022-08-01T14:37:23;5.20;;;1.58;;
14766;SDS011;7475;53.558;9.970;2022-08-01T14:39:48;5.88;;;1.40;;
14766;SDS011;7475;53.558;9.970;2022-08-01T14:42:13;6.47;;;1.90;;
14766;SDS011;7475;53.558;9.970;2022-08-01T14:44:39;5.87;;;1.83;;
14766;SDS011;7475;53.558;9.970;2022-08-01T14:47:04;5.90;;;1.92;;
14766;SDS011;7475;53.558;9.970;2022-08-01T14:49:29;7.03;;;1.92;;
14766;SDS011;7475;53.558;9.970;2022-08-01T14:51:54;5.07;;;1.80;;
14766;SDS011;7475;53.558;9.970;2022-08-01T14:54:20;6.28;;;1.50;;
14766;SDS011;7475;53.558;9.970;2022-08-01T14:56:45;4.80;;;1.50;;
14766;SDS011;7475;53.558;9.970;2022-08-01T14:59:10;10.03;;;1.70;;
14766;SDS011;7475;53.558;9.970;2022-08-01T15:01:35;7.90;;;4.87;;
14766;SDS011;7475;53.558;9.970;2022-08-01T15:04:00;8.47;;;3.53;;
14766;SDS011;7475;53.558;9.970;2022-08-01T15:06:26;6.18;;;2.45;;
14766;SDS011;7475;53.558;9.970;2022-08-01T15:08:51;5.33;;;2.17;;
14766;SDS011;7475;53.558;9.970;2022-08-01T15:11:16;10.50;;;6.03;;
14766;SDS011;7475;53.558;9.970;2022-08-01T15:13:41;8.23;;;3.10;;
14766;SDS011;7475;53.558;9.970;2022-08-01T15:16:07;11.48;;;3.10;;
14766;SDS011;7475;53.558;9.970;2022-08-01T15:18:32;7.47;;;3.90;;
14766;SDS011;7475;53.558;9.970;2022-08-01T15:20:57;7.75;;;2.72;;
14766;SDS011;7475;53.558;9.970;2022-08-01T15:23:22;19.30;;;12.60;;
14766;SDS011;7475;53.558;9.970;2022-08-01T15:25:48;6.30;;;2.77;;
14766;SDS011;7475;53.558;9.970;2022-08-01T15:28:13;7.43;;;4.20;;
14766;SDS011;7475;53.558;9.970;2022-08-01T15:30:38;7.93;;;3.22;;